sensor_id;sensor_type;location;lat;lon;timestamp;P1;durP1;ratioP1;P2;durP2;ratioP2
46931;SDS011;32670;51.464;11.964;2023-12-04T00:01:12;5.77;;;5.17;;
46931;SDS011;32670;51.464;11.964;2023-12-04T00:03:38;5.30;;;4.80;;
46931;SDS011;32670;51.464;11.964;2023-12-04T00:06:04;6.33;;;5.00;;
46931;SDS011;32670;51.464;11.964;2023-12-04T00:08:29;6.97;;;4.63;;
46931;SDS011;32670;51.464;11.964;2023-12-04T00:10:55;5.03;;;4.57;;
46931;SDS011;32670;51.464;11.964;2023-12-04T00:13:20;6.57;;;4.90;;
46931;SDS011;32670;51.464;11.964;2023-12-04T00:15:46;5.00;;;4.60;;
46931;SDS011;32670;51.464;11.964;2023-12-04T00:18:11;5.27;;;4.77;;
46931;SDS011;32670;51.464;11.964;2023-12-04T00:20:37;8.23;;;4.70;;
46931;SDS011;32670;51.464;11.964;2023-12-04T00:23:02;5.93;;;4.77;;
46931;SDS011;32670;51.464;11.964;2023-12-04T00:25:28;5.03;;;4.63;;
46931;SDS011;32670;51.464;11.964;2023-12-04T00:27:53;6.90;;;5.00;;
46931;SDS011;32670;51.464;11.964;2023-12-04T00:30:19;4.90;;;4.43;;
46931;SDS011;32670;51.464;11.964;2023-12-04T00:32:44;5.20;;;4.70;;
46931;SDS011;32670;51.464;11.964;2023-12-04T00:35:10;4.87;;;4.37;;
46931;SDS011;32670;51.464;11.964;2023-12-04T00:37:35;4.63;;;4.23;;
46931;SDS011;32670;51.464;11.964;2023-12-04T00:40:03;5.03;;;4.63;;
46931;SDS011;32670;51.464;11.964;2023-12-04T00:42:30;7.40;;;4.50;;
46931;SDS011;32670;51.464;11.964;2023-12-04T00:44:55;5.20;;;4.70;;
46931;SDS011;32670;51.464;11.964;2023-12-04T00:47:21;4.27;;;3.87;;
46931;SDS011;32670;51.464;11.964;2023-12-04T00:49:46;5.60;;;4.63;;
46931;SDS011;32670;51.464;11.964;2023-12-04T00:52:12;4.83;;;4.37;;
46931;SDS011;32670;51.464;11.964;2023-12-04T00:54:40;4.97;;;4.47;;
46931;SDS011;32670;51.464;11.964;2023-12-04T00:57:06;4.83;;;4.33;;
46931;SDS011;32670;51.464;11.964;2023-12-04T00:59:31;4.90;;;4.40;;
46931;SDS011;32670;51.464;11.964;2023-12-04T01:01:57;5.80;;;4.60;;
46931;SDS011;32670;51.464;11.964;2023-12-04T01:04:22;4.80;;;4.40;;
46931;SDS011;32670;51.464;11.964;2023-12-04T01:06:48;4.57;;;4.20;;
46931;SDS011;32670;51.464;11.964;2023-12-04T01:09:13;4.87;;;4.47;;
46931;SDS011;32670;51.464;11.964;2023-12-04T01:11:39;5.63;;;4.07;;
46931;SDS011;32670;51.464;11.964;2023-12-04T01:14:04;3.97;;;3.57;;
46931;SDS011;32670;51.464;11.964;2023-12-04T01:16:30;4.67;;;4.27;;
46931;SDS011;32670;51.464;11.964;2023-12-04T01:18:55;4.43;;;4.03;;
46931;SDS011;32670;51.464;11.964;2023-12-04T01:21:21;5.73;;;4.50;;
46931;SDS011;32670;51.464;11.964;2023-12-04T01:23:46;5.70;;;4.03;;
46931;SDS011;32670;51.464;11.964;2023-12-04T01:26:12;4.67;;;4.00;;
46931;SDS011;32670;51.464;11.964;2023-12-04T01:28:37;4.33;;;3.97;;
46931;SDS011;32670;51.464;11.964;2023-12-04T01:31:03;5.70;;;4.17;;
46931;SDS011;32670;51.464;11.964;2023-12-04T01:33:29;5.73;;;3.87;;
46931;SDS011;32670;51.464;11.964;2023-12-04T01:35:55;4.57;;;4.17;;
46931;SDS011;32670;51.464;11.964;2023-12-04T01:38:20;4.67;;;4.20;;
46931;SDS011;32670;51.464;11.964;2023-12-04T01:40:46;7.43;;;3.93;;
46931;SDS011;32670;51.464;11.964;2023-12-04T01:43:11;6.97;;;4.40;;
46931;SDS011;32670;51.464;11.964;2023-12-04T01:45:37;5.23;;;4.00;;
46931;SDS011;32670;51.464;11.964;2023-12-04T01:48:03;6.50;;;3.83;;
46931;SDS011;32670;51.464;11.964;2023-12-04T01:50:29;4.17;;;3.80;;
46931;SDS011;32670;51.464;11.964;2023-12-04T01:52:54;4.27;;;3.87;;
46931;SDS011;32670;51.464;11.964;2023-12-04T01:55:20;4.07;;;3.77;;
46931;SDS011;32670;51.464;11.964;2023-12-04T01:57:46;5.80;;;4.00;;
46931;SDS011;32670;51.464;11.964;2023-12-04T02:00:12;8.27;;;3.70;;
46931;SDS011;32670;51.464;11.964;2023-12-04T02:02:39;4.20;;;3.80;;
46931;SDS011;32670;51.464;11.964;2023-12-04T02:05:05;4.33;;;3.93;;
46931;SDS011;32670;51.464;11.964;2023-12-04T02:07:33;4.30;;;3.90;;
46931;SDS011;32670;51.464;11.964;2023-12-04T02:09:59;4.40;;;4.00;;
46931;SDS011;32670;51.464;11.964;2023-12-04T02:12:24;4.17;;;3.77;;
46931;SDS011;32670;51.464;11.964;2023-12-04T02:14:50;5.50;;;3.90;;
46931;SDS011;32670;51.464;11.964;2023-12-04T02:17:16;4.40;;;4.00;;
46931;SDS011;32670;51.464;11.964;2023-12-04T02:19:43;5.63;;;3.57;;
46931;SDS011;32670;51.464;11.964;2023-12-04T02:22:09;4.17;;;3.60;;
46931;SDS011;32670;51.464;11.964;2023-12-04T02:24:34;5.33;;;3.77;;
46931;SDS011;32670;51.464;11.964;2023-12-04T02:27:07;4.87;;;3.70;;
46931;SDS011;32670;51.464;11.964;2023-12-04T02:29:40;5.40;;;3.90;;
46931;SDS011;32670;51.464;11.964;2023-12-04T02:32:11;6.03;;;3.97;;
46931;SDS011;32670;51.464;11.964;2023-12-04T02:34:43;5.17;;;3.77;;
46931;SDS011;32670;51.464;11.964;2023-12-04T02:37:11;8.87;;;3.93;;
46931;SDS011;32670;51.464;11.964;2023-12-04T02:39:37;5.20;;;3.80;;
46931;SDS011;32670;51.464;11.964;2023-12-04T02:42:03;4.40;;;3.67;;
46931;SDS011;32670;51.464;11.964;2023-12-04T02:44:29;3.20;;;2.93;;
46931;SDS011;32670;51.464;11.964;2023-12-04T02:46:54;5.33;;;3.50;;
46931;SDS011;32670;51.464;11.964;2023-12-04T02:49:20;6.80;;;6.10;;
46931;SDS011;32670;51.464;11.964;2023-12-04T02:51:45;7.20;;;6.50;;
46931;SDS011;32670;51.464;11.964;2023-12-04T02:54:11;5.40;;;4.90;;
46931;SDS011;32670;51.464;11.964;2023-12-04T02:56:36;8.47;;;5.30;;
46931;SDS011;32670;51.464;11.964;2023-12-04T02:59:02;8.57;;;5.17;;
46931;SDS011;32670;51.464;11.964;2023-12-04T03:01:27;7.23;;;5.00;;
46931;SDS011;32670;51.464;11.964;2023-12-04T03:03:53;6.03;;;4.97;;
46931;SDS011;32670;51.464;11.964;2023-12-04T03:06:21;5.17;;;4.63;;
46931;SDS011;32670;51.464;11.964;2023-12-04T03:08:46;5.33;;;4.83;;
46931;SDS011;32670;51.464;11.964;2023-12-04T03:11:12;5.50;;;4.80;;
46931;SDS011;32670;51.464;11.964;2023-12-04T03:13:38;6.50;;;4.80;;
46931;SDS011;32670;51.464;11.964;2023-12-04T03:16:04;5.80;;;4.87;;
46931;SDS011;32670;51.464;11.964;2023-12-04T03:18:29;6.10;;;5.13;;
46931;SDS011;32670;51.464;11.964;2023-12-04T03:20:55;7.23;;;5.13;;
46931;SDS011;32670;51.464;11.964;2023-12-04T03:23:20;5.50;;;4.93;;
46931;SDS011;32670;51.464;11.964;2023-12-04T03:25:46;5.20;;;4.70;;
46931;SDS011;32670;51.464;11.964;2023-12-04T03:28:11;5.23;;;4.73;;
46931;SDS011;32670;51.464;11.964;2023-12-04T03:30:38;5.67;;;4.90;;
46931;SDS011;32670;51.464;11.964;2023-12-04T03:33:03;5.27;;;4.33;;
46931;SDS011;32670;51.464;11.964;2023-12-04T03:35:29;5.33;;;4.40;;
46931;SDS011;32670;51.464;11.964;2023-12-04T03:37:54;5.50;;;4.50;;
46931;SDS011;32670;51.464;11.964;2023-12-04T03:40:20;4.67;;;4.27;;
46931;SDS011;32670;51.464;11.964;2023-12-04T03:42:45;4.40;;;4.00;;
46931;SDS011;32670;51.464;11.964;2023-12-04T03:45:11;5.93;;;4.70;;
46931;SDS011;32670;51.464;11.964;2023-12-04T03:47:36;7.23;;;4.47;;
46931;SDS011;32670;51.464;11.964;2023-12-04T03:50:02;4.70;;;4.30;;
46931;SDS011;32670;51.464;11.964;2023-12-04T03:52:27;4.60;;;4.20;;
46931;SDS011;32670;51.464;11.964;2023-12-04T03:54:52;5.10;;;4.70;;
46931;SDS011;32670;51.464;11.964;2023-12-04T03:57:18;6.13;;;4.47;;
46931;SDS011;32670;51.464;11.964;2023-12-04T03:59:43;4.57;;;4.17;;
46931;SDS011;32670;51.464;11.964;2023-12-04T04:02:10;5.43;;;4.50;;
46931;SDS011;32670;51.464;11.964;2023-12-04T04:04:35;5.63;;;4.17;;
46931;SDS011;32670;51.464;11.964;2023-12-04T04:07:00;4.57;;;4.17;;
46931;SDS011;32670;51.464;11.964;2023-12-04T04:09:26;5.93;;;4.37;;
46931;SDS011;32670;51.464;11.964;2023-12-04T04:11:51;5.47;;;4.27;;
46931;SDS011;32670;51.464;11.964;2023-12-04T04:14:17;5.70;;;3.87;;
46931;SDS011;32670;51.464;11.964;2023-12-04T04:16:42;4.40;;;4.00;;
46931;SDS011;32670;51.464;11.964;2023-12-04T04:19:08;5.23;;;4.20;;
46931;SDS011;32670;51.464;11.964;2023-12-04T04:21:33;5.80;;;4.00;;
46931;SDS011;32670;51.464;11.964;2023-12-04T04:23:59;4.53;;;4.07;;
46931;SDS011;32670;51.464;11.964;2023-12-04T04:26:25;4.50;;;4.13;;
46931;SDS011;32670;51.464;11.964;2023-12-04T04:28:50;8.43;;;6.10;;
46931;SDS011;32670;51.464;11.964;2023-12-04T04:31:15;6.10;;;4.40;;
46931;SDS011;32670;51.464;11.964;2023-12-04T04:33:41;9.93;;;4.60;;
46931;SDS011;32670;51.464;11.964;2023-12-04T04:36:08;5.30;;;4.80;;
46931;SDS011;32670;51.464;11.964;2023-12-04T04:38:34;5.90;;;4.40;;
46931;SDS011;32670;51.464;11.964;2023-12-04T04:41:00;7.03;;;4.53;;
46931;SDS011;32670;51.464;11.964;2023-12-04T04:43:25;5.20;;;4.27;;
46931;SDS011;32670;51.464;11.964;2023-12-04T04:45:51;4.80;;;4.40;;
46931;SDS011;32670;51.464;11.964;2023-12-04T04:48:16;5.90;;;4.40;;
46931;SDS011;32670;51.464;11.964;2023-12-04T04:50:42;5.47;;;4.40;;
46931;SDS011;32670;51.464;11.964;2023-12-04T04:53:07;4.83;;;4.10;;
46931;SDS011;32670;51.464;11.964;2023-12-04T04:55:32;6.03;;;4.47;;
46931;SDS011;32670;51.464;11.964;2023-12-04T04:57:58;6.03;;;4.43;;
46931;SDS011;32670;51.464;11.964;2023-12-04T05:00:23;4.50;;;4.10;;
46931;SDS011;32670;51.464;11.964;2023-12-04T05:02:50;4.50;;;4.10;;
46931;SDS011;32670;51.464;11.964;2023-12-04T05:05:15;4.80;;;4.30;;
46931;SDS011;32670;51.464;11.964;2023-12-04T05:07:41;6.23;;;4.70;;
46931;SDS011;32670;51.464;11.964;2023-12-04T05:10:06;6.17;;;4.33;;
46931;SDS011;32670;51.464;11.964;2023-12-04T05:12:32;6.70;;;4.43;;
46931;SDS011;32670;51.464;11.964;2023-12-04T05:14:57;6.00;;;4.60;;
46931;SDS011;32670;51.464;11.964;2023-12-04T05:17:23;4.53;;;4.13;;
46931;SDS011;32670;51.464;11.964;2023-12-04T05:19:48;7.33;;;4.40;;
46931;SDS011;32670;51.464;11.964;2023-12-04T05:22:14;7.70;;;4.10;;
46931;SDS011;32670;51.464;11.964;2023-12-04T05:24:39;6.50;;;4.47;;
46931;SDS011;32670;51.464;11.964;2023-12-04T05:27:05;6.60;;;4.37;;
46931;SDS011;32670;51.464;11.964;2023-12-04T05:29:30;4.60;;;4.07;;
46931;SDS011;32670;51.464;11.964;2023-12-04T05:31:55;7.00;;;4.43;;
46931;SDS011;32670;51.464;11.964;2023-12-04T05:34:22;4.67;;;4.23;;
46931;SDS011;32670;51.464;11.964;2023-12-04T05:36:48;5.03;;;4.23;;
46931;SDS011;32670;51.464;11.964;2023-12-04T05:39:13;5.17;;;3.93;;
46931;SDS011;32670;51.464;11.964;2023-12-04T05:41:39;4.93;;;3.90;;
46931;SDS011;32670;51.464;11.964;2023-12-04T05:44:04;4.77;;;3.83;;
46931;SDS011;32670;51.464;11.964;2023-12-04T05:46:29;4.90;;;4.30;;
46931;SDS011;32670;51.464;11.964;2023-12-04T05:48:55;4.97;;;3.80;;
46931;SDS011;32670;51.464;11.964;2023-12-04T05:51:20;4.57;;;3.97;;
46931;SDS011;32670;51.464;11.964;2023-12-04T05:53:47;5.87;;;4.13;;
46931;SDS011;32670;51.464;11.964;2023-12-04T05:56:12;4.43;;;4.03;;
46931;SDS011;32670;51.464;11.964;2023-12-04T05:58:38;4.40;;;4.00;;
46931;SDS011;32670;51.464;11.964;2023-12-04T06:01:03;7.90;;;4.50;;
46931;SDS011;32670;51.464;11.964;2023-12-04T06:03:32;5.63;;;5.10;;
46931;SDS011;32670;51.464;11.964;2023-12-04T06:06:00;5.70;;;5.20;;
46931;SDS011;32670;51.464;11.964;2023-12-04T06:08:25;6.03;;;4.90;;
46931;SDS011;32670;51.464;11.964;2023-12-04T06:10:51;7.77;;;4.60;;
46931;SDS011;32670;51.464;11.964;2023-12-04T06:13:16;5.97;;;4.63;;
46931;SDS011;32670;51.464;11.964;2023-12-04T06:15:42;5.87;;;4.77;;
46931;SDS011;32670;51.464;11.964;2023-12-04T06:18:08;10.90;;;4.60;;
46931;SDS011;32670;51.464;11.964;2023-12-04T06:20:34;5.30;;;4.33;;
46931;SDS011;32670;51.464;11.964;2023-12-04T06:22:59;4.57;;;4.17;;
46931;SDS011;32670;51.464;11.964;2023-12-04T06:25:25;5.97;;;4.50;;
46931;SDS011;32670;51.464;11.964;2023-12-04T06:27:51;9.47;;;4.50;;
46931;SDS011;32670;51.464;11.964;2023-12-04T06:30:17;9.37;;;5.97;;
46931;SDS011;32670;51.464;11.964;2023-12-04T06:32:43;5.83;;;4.93;;
46931;SDS011;32670;51.464;11.964;2023-12-04T06:35:09;7.50;;;4.60;;
46931;SDS011;32670;51.464;11.964;2023-12-04T06:37:35;6.13;;;4.13;;
46931;SDS011;32670;51.464;11.964;2023-12-04T06:40:04;6.20;;;4.77;;
46931;SDS011;32670;51.464;11.964;2023-12-04T06:42:33;9.60;;;4.63;;
46931;SDS011;32670;51.464;11.964;2023-12-04T06:45:02;5.77;;;5.17;;
46931;SDS011;32670;51.464;11.964;2023-12-04T06:47:27;16.83;;;5.80;;
46931;SDS011;32670;51.464;11.964;2023-12-04T06:49:56;8.83;;;5.37;;
46931;SDS011;32670;51.464;11.964;2023-12-04T06:52:22;12.97;;;5.07;;
46931;SDS011;32670;51.464;11.964;2023-12-04T06:54:47;9.50;;;5.33;;
46931;SDS011;32670;51.464;11.964;2023-12-04T06:57:13;11.30;;;4.70;;
46931;SDS011;32670;51.464;11.964;2023-12-04T06:59:41;7.27;;;4.57;;
46931;SDS011;32670;51.464;11.964;2023-12-04T07:02:07;7.40;;;4.73;;
46931;SDS011;32670;51.464;11.964;2023-12-04T07:04:33;8.10;;;4.87;;
46931;SDS011;32670;51.464;11.964;2023-12-04T07:06:59;7.53;;;5.00;;
46931;SDS011;32670;51.464;11.964;2023-12-04T07:09:29;5.63;;;5.10;;
46931;SDS011;32670;51.464;11.964;2023-12-04T07:11:55;6.10;;;5.23;;
46931;SDS011;32670;51.464;11.964;2023-12-04T07:14:21;6.97;;;4.83;;
46931;SDS011;32670;51.464;11.964;2023-12-04T07:16:46;5.93;;;4.93;;
46931;SDS011;32670;51.464;11.964;2023-12-04T07:19:12;5.10;;;4.53;;
46931;SDS011;32670;51.464;11.964;2023-12-04T07:21:39;5.80;;;4.87;;
46931;SDS011;32670;51.464;11.964;2023-12-04T07:24:07;5.00;;;4.50;;
46931;SDS011;32670;51.464;11.964;2023-12-04T07:26:33;5.30;;;4.50;;
46931;SDS011;32670;51.464;11.964;2023-12-04T07:28:59;5.93;;;4.50;;
46931;SDS011;32670;51.464;11.964;2023-12-04T07:31:25;4.40;;;4.10;;
46931;SDS011;32670;51.464;11.964;2023-12-04T07:33:52;4.83;;;4.37;;
46931;SDS011;32670;51.464;11.964;2023-12-04T07:36:18;4.63;;;4.20;;
46931;SDS011;32670;51.464;11.964;2023-12-04T07:38:44;4.60;;;4.20;;
46931;SDS011;32670;51.464;11.964;2023-12-04T07:41:10;6.10;;;3.80;;
46931;SDS011;32670;51.464;11.964;2023-12-04T07:43:35;4.60;;;4.03;;
46931;SDS011;32670;51.464;11.964;2023-12-04T07:46:01;3.93;;;3.57;;
46931;SDS011;32670;51.464;11.964;2023-12-04T07:48:28;5.13;;;4.27;;
46931;SDS011;32670;51.464;11.964;2023-12-04T07:50:54;4.20;;;3.77;;
46931;SDS011;32670;51.464;11.964;2023-12-04T07:53:20;4.67;;;3.93;;
46931;SDS011;32670;51.464;11.964;2023-12-04T07:55:45;4.57;;;4.17;;
46931;SDS011;32670;51.464;11.964;2023-12-04T07:58:13;4.10;;;3.70;;
46931;SDS011;32670;51.464;11.964;2023-12-04T08:00:39;4.87;;;4.10;;
46931;SDS011;32670;51.464;11.964;2023-12-04T08:03:04;17.63;;;4.20;;
46931;SDS011;32670;51.464;11.964;2023-12-04T08:05:30;13.70;;;3.83;;
46931;SDS011;32670;51.464;11.964;2023-12-04T08:07:56;12.70;;;4.07;;
46931;SDS011;32670;51.464;11.964;2023-12-04T08:10:22;12.23;;;3.63;;
46931;SDS011;32670;51.464;11.964;2023-12-04T08:12:48;7.20;;;3.33;;
46931;SDS011;32670;51.464;11.964;2023-12-04T08:15:14;9.80;;;3.30;;
46931;SDS011;32670;51.464;11.964;2023-12-04T08:17:39;6.37;;;3.70;;
46931;SDS011;32670;51.464;11.964;2023-12-04T08:20:05;5.63;;;3.30;;
46931;SDS011;32670;51.464;11.964;2023-12-04T08:22:31;4.90;;;3.37;;
46931;SDS011;32670;51.464;11.964;2023-12-04T08:24:57;6.30;;;3.60;;
46931;SDS011;32670;51.464;11.964;2023-12-04T08:27:23;6.43;;;3.40;;
46931;SDS011;32670;51.464;11.964;2023-12-04T08:29:49;7.97;;;3.87;;
46931;SDS011;32670;51.464;11.964;2023-12-04T08:32:14;4.60;;;3.13;;
46931;SDS011;32670;51.464;11.964;2023-12-04T08:34:40;9.23;;;5.00;;
46931;SDS011;32670;51.464;11.964;2023-12-04T08:37:05;4.17;;;3.33;;
46931;SDS011;32670;51.464;11.964;2023-12-04T08:39:31;5.67;;;3.30;;
46931;SDS011;32670;51.464;11.964;2023-12-04T08:41:56;4.17;;;3.77;;
46931;SDS011;32670;51.464;11.964;2023-12-04T08:44:22;4.83;;;3.10;;
46931;SDS011;32670;51.464;11.964;2023-12-04T08:46:48;3.40;;;3.07;;
46931;SDS011;32670;51.464;11.964;2023-12-04T08:49:14;5.43;;;3.00;;
46931;SDS011;32670;51.464;11.964;2023-12-04T08:51:39;3.40;;;3.10;;
46931;SDS011;32670;51.464;11.964;2023-12-04T08:54:06;5.40;;;3.90;;
46931;SDS011;32670;51.464;11.964;2023-12-04T08:56:32;5.60;;;3.60;;
46931;SDS011;32670;51.464;11.964;2023-12-04T08:58:57;7.53;;;4.03;;
46931;SDS011;32670;51.464;11.964;2023-12-04T09:01:23;4.87;;;3.37;;
46931;SDS011;32670;51.464;11.964;2023-12-04T09:03:48;5.50;;;4.00;;
46931;SDS011;32670;51.464;11.964;2023-12-04T09:06:14;5.77;;;3.60;;
46931;SDS011;32670;51.464;11.964;2023-12-04T09:08:40;4.60;;;3.70;;
46931;SDS011;32670;51.464;11.964;2023-12-04T09:11:06;5.53;;;3.90;;
46931;SDS011;32670;51.464;11.964;2023-12-04T09:13:32;5.30;;;3.57;;
46931;SDS011;32670;51.464;11.964;2023-12-04T09:15:58;5.43;;;3.63;;
46931;SDS011;32670;51.464;11.964;2023-12-04T09:18:24;4.97;;;3.70;;
46931;SDS011;32670;51.464;11.964;2023-12-04T09:20:49;4.10;;;3.37;;
46931;SDS011;32670;51.464;11.964;2023-12-04T09:23:15;5.33;;;3.70;;
46931;SDS011;32670;51.464;11.964;2023-12-04T09:25:40;4.17;;;3.40;;
46931;SDS011;32670;51.464;11.964;2023-12-04T09:28:06;4.80;;;3.43;;
46931;SDS011;32670;51.464;11.964;2023-12-04T09:30:33;5.23;;;3.43;;
46931;SDS011;32670;51.464;11.964;2023-12-04T09:33:00;4.07;;;3.67;;
46931;SDS011;32670;51.464;11.964;2023-12-04T09:35:25;4.47;;;3.43;;
46931;SDS011;32670;51.464;11.964;2023-12-04T09:37:51;5.83;;;3.70;;
46931;SDS011;32670;51.464;11.964;2023-12-04T09:40:16;4.37;;;3.50;;
46931;SDS011;32670;51.464;11.964;2023-12-04T09:42:42;4.27;;;3.50;;
46931;SDS011;32670;51.464;11.964;2023-12-04T09:45:08;4.57;;;3.37;;
46931;SDS011;32670;51.464;11.964;2023-12-04T09:47:34;4.43;;;3.30;;
46931;SDS011;32670;51.464;11.964;2023-12-04T09:50:00;3.83;;;3.33;;
46931;SDS011;32670;51.464;11.964;2023-12-04T09:52:27;4.00;;;3.57;;
46931;SDS011;32670;51.464;11.964;2023-12-04T09:54:52;4.37;;;3.40;;
46931;SDS011;32670;51.464;11.964;2023-12-04T09:57:18;4.90;;;3.57;;
46931;SDS011;32670;51.464;11.964;2023-12-04T09:59:44;5.10;;;3.40;;
46931;SDS011;32670;51.464;11.964;2023-12-04T10:02:11;4.40;;;3.50;;
46931;SDS011;32670;51.464;11.964;2023-12-04T10:04:36;3.70;;;3.23;;
46931;SDS011;32670;51.464;11.964;2023-12-04T10:07:02;4.40;;;2.93;;
46931;SDS011;32670;51.464;11.964;2023-12-04T10:09:28;4.70;;;3.37;;
46931;SDS011;32670;51.464;11.964;2023-12-04T10:11:55;3.13;;;2.83;;
46931;SDS011;32670;51.464;11.964;2023-12-04T10:14:21;4.00;;;3.50;;
46931;SDS011;32670;51.464;11.964;2023-12-04T10:16:47;3.80;;;3.07;;
46931;SDS011;32670;51.464;11.964;2023-12-04T10:19:17;3.63;;;3.20;;
46931;SDS011;32670;51.464;11.964;2023-12-04T10:21:48;4.07;;;3.10;;
46931;SDS011;32670;51.464;11.964;2023-12-04T10:24:34;3.40;;;3.10;;
46931;SDS011;32670;51.464;11.964;2023-12-04T10:27:01;3.20;;;2.97;;
46931;SDS011;32670;51.464;11.964;2023-12-04T10:29:30;3.57;;;3.27;;
46931;SDS011;32670;51.464;11.964;2023-12-04T10:32:12;3.30;;;3.00;;
46931;SDS011;32670;51.464;11.964;2023-12-04T10:34:37;3.47;;;3.17;;
46931;SDS011;32670;51.464;11.964;2023-12-04T10:37:04;3.50;;;3.00;;
46931;SDS011;32670;51.464;11.964;2023-12-04T10:39:30;3.30;;;3.00;;
46931;SDS011;32670;51.464;11.964;2023-12-04T10:42:02;3.43;;;3.13;;
46931;SDS011;32670;51.464;11.964;2023-12-04T10:44:30;3.67;;;3.27;;
46931;SDS011;32670;51.464;11.964;2023-12-04T10:46:56;3.20;;;2.90;;
46931;SDS011;32670;51.464;11.964;2023-12-04T10:49:26;3.40;;;3.10;;
46931;SDS011;32670;51.464;11.964;2023-12-04T10:51:53;3.97;;;3.57;;
46931;SDS011;32670;51.464;11.964;2023-12-04T10:54:21;3.33;;;2.90;;
46931;SDS011;32670;51.464;11.964;2023-12-04T10:56:46;3.00;;;2.70;;
46931;SDS011;32670;51.464;11.964;2023-12-04T10:59:15;3.30;;;3.00;;
46931;SDS011;32670;51.464;11.964;2023-12-04T11:01:46;3.93;;;3.03;;
46931;SDS011;32670;51.464;11.964;2023-12-04T11:04:16;3.60;;;3.30;;
46931;SDS011;32670;51.464;11.964;2023-12-04T11:06:43;3.27;;;2.97;;
46931;SDS011;32670;51.464;11.964;2023-12-04T11:09:16;3.40;;;3.10;;
46931;SDS011;32670;51.464;11.964;2023-12-04T11:11:43;2.90;;;2.70;;
46931;SDS011;32670;51.464;11.964;2023-12-04T11:14:14;3.27;;;2.97;;
46931;SDS011;32670;51.464;11.964;2023-12-04T11:16:47;3.30;;;3.00;;
46931;SDS011;32670;51.464;11.964;2023-12-04T11:19:25;3.30;;;3.00;;
46931;SDS011;32670;51.464;11.964;2023-12-04T11:21:57;3.13;;;2.80;;
46931;SDS011;32670;51.464;11.964;2023-12-04T11:24:23;3.10;;;2.90;;
46931;SDS011;32670;51.464;11.964;2023-12-04T11:26:49;3.20;;;2.90;;
46931;SDS011;32670;51.464;11.964;2023-12-04T11:29:15;3.17;;;2.87;;
46931;SDS011;32670;51.464;11.964;2023-12-04T11:31:41;3.50;;;3.20;;
46931;SDS011;32670;51.464;11.964;2023-12-04T11:34:08;3.13;;;2.83;;
46931;SDS011;32670;51.464;11.964;2023-12-04T11:36:34;3.10;;;2.90;;
46931;SDS011;32670;51.464;11.964;2023-12-04T11:39:00;3.20;;;3.00;;
46931;SDS011;32670;51.464;11.964;2023-12-04T11:41:26;2.80;;;2.60;;
46931;SDS011;32670;51.464;11.964;2023-12-04T11:43:52;2.80;;;2.60;;
46931;SDS011;32670;51.464;11.964;2023-12-04T11:46:20;2.80;;;2.60;;
46931;SDS011;32670;51.464;11.964;2023-12-04T11:48:50;3.13;;;2.93;;
46931;SDS011;32670;51.464;11.964;2023-12-04T11:54:14;3.13;;;2.80;;
46931;SDS011;32670;51.464;11.964;2023-12-04T11:57:00;2.83;;;2.63;;
46931;SDS011;32670;51.464;11.964;2023-12-04T11:59:38;2.80;;;2.60;;
46931;SDS011;32670;51.464;11.964;2023-12-04T12:02:07;3.27;;;2.97;;
46931;SDS011;32670;51.464;11.964;2023-12-04T12:04:33;3.00;;;2.80;;
46931;SDS011;32670;51.464;11.964;2023-12-04T12:06:59;2.77;;;2.57;;
46931;SDS011;32670;51.464;11.964;2023-12-04T12:09:28;2.87;;;2.67;;
46931;SDS011;32670;51.464;11.964;2023-12-04T12:11:54;3.50;;;2.60;;
46931;SDS011;32670;51.464;11.964;2023-12-04T12:14:20;3.20;;;2.90;;
46931;SDS011;32670;51.464;11.964;2023-12-04T12:16:46;3.17;;;2.60;;
46931;SDS011;32670;51.464;11.964;2023-12-04T12:19:12;4.17;;;2.90;;
46931;SDS011;32670;51.464;11.964;2023-12-04T12:21:37;2.67;;;2.47;;
46931;SDS011;32670;51.464;11.964;2023-12-04T12:24:05;5.27;;;4.87;;
46931;SDS011;32670;51.464;11.964;2023-12-04T12:26:31;3.70;;;3.40;;
46931;SDS011;32670;51.464;11.964;2023-12-04T12:28:57;5.83;;;4.77;;
46931;SDS011;32670;51.464;11.964;2023-12-04T12:31:22;7.40;;;6.50;;
46931;SDS011;32670;51.464;11.964;2023-12-04T12:33:48;4.43;;;4.03;;
46931;SDS011;32670;51.464;11.964;2023-12-04T12:36:14;4.77;;;4.37;;
46931;SDS011;32670;51.464;11.964;2023-12-04T12:38:42;5.77;;;5.00;;
46931;SDS011;32670;51.464;11.964;2023-12-04T12:41:14;4.77;;;4.37;;
46931;SDS011;32670;51.464;11.964;2023-12-04T12:43:41;5.00;;;4.60;;
46931;SDS011;32670;51.464;11.964;2023-12-04T12:46:06;7.10;;;6.40;;
46931;SDS011;32670;51.464;11.964;2023-12-04T12:48:32;5.83;;;4.80;;
46931;SDS011;32670;51.464;11.964;2023-12-04T12:50:57;5.87;;;4.63;;
46931;SDS011;32670;51.464;11.964;2023-12-04T12:53:23;5.90;;;5.40;;
46931;SDS011;32670;51.464;11.964;2023-12-04T12:55:48;7.20;;;6.50;;
46931;SDS011;32670;51.464;11.964;2023-12-04T12:58:14;6.40;;;5.80;;
46931;SDS011;32670;51.464;11.964;2023-12-04T13:00:40;5.80;;;5.20;;
46931;SDS011;32670;51.464;11.964;2023-12-04T13:03:17;8.50;;;7.67;;
46931;SDS011;32670;51.464;11.964;2023-12-04T13:05:44;7.00;;;6.40;;
46931;SDS011;32670;51.464;11.964;2023-12-04T13:08:13;6.73;;;6.00;;
46931;SDS011;32670;51.464;11.964;2023-12-04T13:10:40;7.20;;;5.80;;
46931;SDS011;32670;51.464;11.964;2023-12-04T13:13:09;6.83;;;6.13;;
46931;SDS011;32670;51.464;11.964;2023-12-04T13:15:38;6.57;;;5.60;;
46931;SDS011;32670;51.464;11.964;2023-12-04T13:18:04;6.47;;;5.87;;
46931;SDS011;32670;51.464;11.964;2023-12-04T13:20:29;6.70;;;6.00;;
46931;SDS011;32670;51.464;11.964;2023-12-04T13:22:55;6.57;;;5.97;;
46931;SDS011;32670;51.464;11.964;2023-12-04T13:25:20;6.30;;;5.70;;
46931;SDS011;32670;51.464;11.964;2023-12-04T13:27:47;6.90;;;6.20;;
46931;SDS011;32670;51.464;11.964;2023-12-04T13:30:13;5.83;;;5.33;;
46931;SDS011;32670;51.464;11.964;2023-12-04T13:32:38;5.90;;;5.30;;
46931;SDS011;32670;51.464;11.964;2023-12-04T13:35:04;5.87;;;5.23;;
46931;SDS011;32670;51.464;11.964;2023-12-04T13:37:30;6.63;;;6.07;;
46931;SDS011;32670;51.464;11.964;2023-12-04T13:39:56;6.03;;;5.53;;
46931;SDS011;32670;51.464;11.964;2023-12-04T13:42:31;7.30;;;5.47;;
46931;SDS011;32670;51.464;11.964;2023-12-04T13:45:16;5.80;;;5.30;;
46931;SDS011;32670;51.464;11.964;2023-12-04T13:47:41;6.57;;;6.00;;
46931;SDS011;32670;51.464;11.964;2023-12-04T13:50:08;6.13;;;5.53;;
46931;SDS011;32670;51.464;11.964;2023-12-04T13:52:34;5.73;;;5.13;;
46931;SDS011;32670;51.464;11.964;2023-12-04T13:55:00;6.03;;;5.53;;
46931;SDS011;32670;51.464;11.964;2023-12-04T13:57:27;5.87;;;5.37;;
46931;SDS011;32670;51.464;11.964;2023-12-04T13:59:57;5.47;;;4.97;;
46931;SDS011;32670;51.464;11.964;2023-12-04T14:02:23;6.07;;;5.57;;
46931;SDS011;32670;51.464;11.964;2023-12-04T14:04:49;6.10;;;5.50;;
46931;SDS011;32670;51.464;11.964;2023-12-04T14:07:17;6.27;;;5.67;;
46931;SDS011;32670;51.464;11.964;2023-12-04T14:09:43;5.97;;;5.47;;
46931;SDS011;32670;51.464;11.964;2023-12-04T14:12:10;6.43;;;5.83;;
46931;SDS011;32670;51.464;11.964;2023-12-04T14:14:36;6.20;;;5.60;;
46931;SDS011;32670;51.464;11.964;2023-12-04T14:17:02;5.90;;;5.40;;
46931;SDS011;32670;51.464;11.964;2023-12-04T14:19:29;5.67;;;5.17;;
46931;SDS011;32670;51.464;11.964;2023-12-04T14:21:55;7.37;;;5.00;;
46931;SDS011;32670;51.464;11.964;2023-12-04T14:24:21;5.37;;;4.77;;
46931;SDS011;32670;51.464;11.964;2023-12-04T14:26:47;5.57;;;5.07;;
46931;SDS011;32670;51.464;11.964;2023-12-04T14:29:13;5.23;;;4.80;;
46931;SDS011;32670;51.464;11.964;2023-12-04T14:31:38;5.17;;;4.67;;